Main page
METAR-TAF:

METAR-TAF

Airports :

Nuremberg, Germany

Nuremberg Airport

latitude: 49-30N, longitude: 011-03E, elevation: 318 m

Current weather observation

The report was made 34 minutes ago, at 14:50 UTC
Wind 8 kt from the Southwest
Temperature 6°C
Humidity 81%
Pressure 1025 hPa
Visibility 10 km or more
Few clouds at a height of 1600 ft
Broken clouds at a height of 4800 ft

METAR: EDDN 231450Z 23008KT 9999 FEW016 BKN048 06/03 Q1025 NOSIG

Time: 16:24 (15:24 UTC)

Forecast

The report was made 4 hours and 24 minutes ago, at 11:00 UTC
Forecast valid from 23 at 12 UTC to 24 at 12 UTC
Wind 6 kt from the Southwest
Visibility 10 km or more
Few clouds at a height of 1500 ft
Broken clouds at a height of 4000 ft
Becoming
from 23 at 16 UTC to 23 at 18 UTC
Wind 5 kt from the Southeast
Probability 30% :
Temporary
from 24 at 01 UTC to 24 at 09 UTC
Broken clouds at a height of 1000 ft

TAF: EDDN 231100Z 2312/2412 22006KT 9999 FEW015 BKN040 BECMG 2316/2318 14005KT PROB30 TEMPO 2401/2409 BKN010

Weather observations and forecasts of more than 4000 airports (METAR and TAF reports).

The available stations are represented by yellow and red dots on the map.

Hover mouse over dot to see the name of the station.

Then click to see weather observations and forecasts.

To change the map : click on the green buttons with a black cross to zoom in, on the green button with a dash to zoom out, or on the green arrows for adjacent maps.


METAR-TAF: